createdAt,value
2022-09-10T00:01:42.483Z,68.24
2022-09-10T00:06:44.212Z,68.18
2022-09-10T00:11:46.335Z,68.36
2022-09-10T00:16:47.759Z,68.37
2022-09-10T00:21:50.593Z,68.63
2022-09-10T00:26:51.913Z,68.50
2022-09-10T00:31:54.800Z,68.87
2022-09-10T00:36:56.703Z,68.87
2022-09-10T00:41:58.348Z,68.54
2022-09-10T00:47:00.232Z,68.49
2022-09-10T00:52:01.877Z,68.47
2022-09-10T00:57:05.539Z,67.74
2022-09-10T01:02:07.131Z,67.44
2022-09-10T01:07:10.396Z,67.16
2022-09-10T01:12:19.750Z,66.95
2022-09-10T01:17:46.830Z,67.08
2022-09-10T01:23:17.714Z,66.81
2022-09-10T01:28:25.836Z,66.92
2022-09-10T01:33:30.422Z,66.76
2022-09-10T01:38:34.034Z,67.41
2022-09-10T01:43:36.034Z,67.06
2022-09-10T01:48:56.318Z,67.03
2022-09-10T01:54:16.334Z,67.39
2022-09-10T01:59:23.294Z,67.26
2022-09-10T02:04:25.375Z,67.31
2022-09-10T02:09:27.445Z,67.35
2022-09-10T02:14:29.673Z,67.25
2022-09-10T02:19:51.577Z,67.27
2022-09-10T02:24:52.918Z,67.48
2022-09-10T02:29:55.285Z,67.32
2022-09-10T02:34:57.166Z,67.53
2022-09-10T02:40:02.635Z,67.59
2022-09-10T02:45:04.685Z,67.34
2022-09-10T02:50:06.941Z,67.29
2022-09-10T02:55:09.130Z,67.71
2022-09-10T03:00:10.733Z,67.84
2022-09-10T03:05:12.255Z,68.27
2022-09-10T03:10:13.671Z,68.52
2022-09-10T03:15:15.273Z,68.79
2022-09-10T03:20:17.839Z,69.00
2022-09-10T03:25:19.527Z,69.38
2022-09-10T03:30:21.894Z,69.65
2022-09-10T03:35:23.435Z,69.79
2022-09-10T03:40:24.785Z,69.97
2022-09-10T03:45:26.899Z,70.44
2022-09-10T03:50:28.305Z,70.51
2022-09-10T03:55:30.337Z,70.49
2022-09-10T04:00:33.174Z,70.65
2022-09-10T04:05:38.478Z,70.71
2022-09-10T04:10:40.443Z,70.89
2022-09-10T04:15:44.406Z,70.69
2022-09-10T04:20:47.697Z,70.95
2022-09-10T04:25:49.555Z,70.88
2022-09-10T04:30:51.359Z,70.67
2022-09-10T04:35:55.195Z,70.78
2022-09-10T04:41:02.688Z,70.45
2022-09-10T04:46:04.190Z,70.40
2022-09-10T04:51:16.218Z,70.35
2022-09-10T04:56:21.311Z,70.34
2022-09-10T05:01:23.471Z,70.53
2022-09-10T05:06:28.078Z,70.57
2022-09-10T05:11:31.337Z,70.46
2022-09-10T05:16:33.400Z,70.37
2022-09-10T05:21:35.157Z,70.29
2022-09-10T05:26:37.281Z,70.26
2022-09-10T05:31:40.858Z,70.35
2022-09-10T05:36:43.502Z,70.22
2022-09-10T05:41:45.644Z,70.17
2022-09-10T05:46:48.388Z,70.25
2022-09-10T05:51:51.025Z,70.19
2022-09-10T05:56:52.576Z,70.02
2022-09-10T06:01:54.718Z,70.29
2022-09-10T06:06:58.286Z,70.06
2022-09-10T06:11:59.927Z,69.92
2022-09-10T06:17:01.354Z,69.71
2022-09-10T06:22:05.521Z,69.79
2022-09-10T06:27:12.497Z,69.53
2022-09-10T06:32:15.057Z,69.35
2022-09-10T06:37:18.671Z,69.50
2022-09-10T06:42:20.464Z,69.47
2022-09-10T06:53:11.517Z,68.99
2022-09-10T06:58:12.913Z,69.31
2022-09-10T07:03:15.730Z,69.05
2022-09-10T07:08:17.422Z,68.67
2022-09-10T07:13:23.341Z,68.40
2022-09-10T07:18:25.569Z,68.14
2022-09-10T07:23:27.118Z,68.29
2022-09-10T07:28:28.924Z,67.93
2022-09-10T07:33:30.757Z,67.92
2022-09-10T07:38:32.363Z,67.45
2022-09-10T07:43:34.656Z,67.61
2022-09-10T07:48:37.237Z,67.55
2022-09-10T07:53:42.154Z,67.53
2022-09-10T07:58:53.733Z,66.94
2022-09-10T08:03:56.894Z,67.18
2022-09-10T08:08:59.938Z,67.27
2022-09-10T08:14:01.542Z,66.96
2022-09-10T08:19:04.494Z,66.96
2022-09-10T08:24:10.369Z,66.70
2022-09-10T08:29:13.753Z,66.32
2022-09-10T08:34:15.819Z,66.16
2022-09-10T08:39:24.037Z,66.52
2022-09-10T08:44:50.177Z,65.73
2022-09-10T08:50:01.368Z,65.64
2022-09-10T08:55:19.295Z,65.55
2022-09-10T09:00:24.319Z,65.87
2022-09-10T09:05:26.062Z,65.60
2022-09-10T09:10:48.117Z,65.43
2022-09-10T09:15:56.888Z,65.02
2022-09-10T09:21:00.780Z,65.48
2022-09-10T09:26:11.447Z,63.86
2022-09-10T09:31:17.090Z,63.61
2022-09-10T09:36:25.346Z,63.73
2022-09-10T09:41:32.438Z,63.32
2022-09-10T09:46:34.407Z,63.30
2022-09-10T09:51:40.503Z,63.24
2022-09-10T09:56:43.179Z,62.71
2022-09-10T10:01:44.926Z,61.83
2022-09-10T10:06:47.587Z,62.03
2022-09-10T10:11:59.403Z,62.68
2022-09-10T10:17:01.238Z,62.71
2022-09-10T10:22:14.800Z,62.57
2022-09-10T10:27:17.919Z,63.16
2022-09-10T10:32:20.528Z,63.05
2022-09-10T10:37:21.991Z,62.98
2022-09-10T10:42:33.158Z,62.37
2022-09-10T10:47:41.402Z,62.37
2022-09-10T10:53:01.458Z,62.28
2022-09-10T10:58:02.740Z,62.09
2022-09-10T11:03:21.173Z,61.53
2022-09-10T11:08:52.032Z,60.98
2022-09-10T11:14:19.972Z,61.12
2022-09-10T11:19:40.347Z,60.49
2022-09-10T11:25:11.176Z,61.35
2022-09-10T11:30:16.129Z,61.88
2022-09-10T11:40:35.694Z,61.33
2022-09-10T11:45:53.249Z,60.47
2022-09-10T11:51:13.421Z,62.55
2022-09-10T11:56:31.090Z,64.25
2022-09-10T12:01:41.665Z,65.25
2022-09-10T12:06:59.258Z,65.79
2022-09-10T12:12:05.998Z,66.20
2022-09-10T12:17:14.436Z,66.51
2022-09-10T12:22:27.869Z,66.89
2022-09-10T12:27:48.921Z,66.46
2022-09-10T12:32:52.826Z,66.50
2022-09-10T12:38:14.086Z,64.67
2022-09-10T12:43:36.013Z,65.09
2022-09-10T12:48:47.865Z,64.88
2022-09-10T12:53:49.541Z,65.34
2022-09-10T12:59:09.695Z,65.06
2022-09-10T13:04:24.428Z,64.08
2022-09-10T13:09:28.190Z,64.37
2022-09-10T13:14:36.758Z,64.17
2022-09-10T13:19:42.067Z,64.37
2022-09-10T13:25:00.257Z,63.17
2022-09-10T13:30:11.113Z,62.26
2022-09-10T13:35:21.485Z,61.80
2022-09-10T13:40:39.422Z,61.55
2022-09-10T13:45:41.814Z,62.66
2022-09-10T13:51:01.569Z,61.59
2022-09-10T13:56:12.289Z,61.56
2022-09-10T14:01:15.803Z,60.65
2022-09-10T14:06:22.013Z,59.76
2022-09-10T14:11:24.999Z,60.18
2022-09-10T14:16:32.946Z,60.45
2022-09-10T14:21:34.677Z,60.46
2022-09-10T14:26:36.535Z,59.68
2022-09-10T14:31:38.170Z,59.93
2022-09-10T14:36:39.734Z,60.95
2022-09-10T14:41:42.139Z,61.99
2022-09-10T14:46:57.081Z,62.17
2022-09-10T14:51:59.322Z,62.61
2022-09-10T14:57:02.936Z,62.48
2022-09-10T15:02:13.346Z,61.45
2022-09-10T15:07:14.820Z,61.47
2022-09-10T15:12:23.741Z,61.94
2022-09-10T15:17:25.142Z,62.40
2022-09-10T15:22:27.838Z,62.98
2022-09-10T15:27:30.028Z,63.68
2022-09-10T15:32:31.350Z,64.40
2022-09-10T15:37:32.679Z,64.97
2022-09-10T15:42:34.882Z,65.38
2022-09-10T15:47:36.152Z,65.61
2022-09-10T15:52:37.869Z,65.98
2022-09-10T15:57:40.260Z,66.30
2022-09-10T16:02:42.120Z,65.67
2022-09-10T16:07:44.429Z,65.71
2022-09-10T16:12:45.733Z,66.08
2022-09-10T16:17:47.050Z,66.17
2022-09-10T16:22:48.329Z,66.35
2022-09-10T16:27:49.594Z,66.48
2022-09-10T16:32:51.979Z,66.80
2022-09-10T16:37:53.284Z,67.44
2022-09-10T16:42:54.572Z,68.00
2022-09-10T16:47:57.956Z,68.51
2022-09-10T16:53:02.525Z,68.87
2022-09-10T16:58:03.958Z,69.07
2022-09-10T17:03:06.042Z,69.48
2022-09-10T17:08:07.357Z,69.57
2022-09-10T17:13:11.064Z,69.58
2022-09-10T17:18:12.350Z,69.86
2022-09-10T17:23:13.682Z,69.94
2022-09-10T17:28:15.057Z,70.36
2022-09-10T17:33:16.328Z,70.65
2022-09-10T17:38:17.602Z,70.65
2022-09-10T17:43:19.053Z,71.01
2022-09-10T17:48:20.371Z,71.15
2022-09-10T17:53:21.702Z,71.36
2022-09-10T17:58:23.024Z,71.33
2022-09-10T18:03:24.372Z,71.60
2022-09-10T18:08:25.634Z,71.50
2022-09-10T18:13:27.446Z,71.33
2022-09-10T18:18:28.725Z,71.63
2022-09-10T18:23:30.001Z,71.63
2022-09-10T18:28:31.280Z,71.86
2022-09-10T18:33:40.550Z,72.00
2022-09-10T18:38:42.039Z,71.90
2022-09-10T18:43:43.617Z,72.18
2022-09-10T18:48:46.576Z,72.24
2022-09-10T18:53:48.301Z,72.04
2022-09-10T18:58:50.457Z,72.05
2022-09-10T19:03:51.819Z,72.04
2022-09-10T19:08:54.253Z,72.05
2022-09-10T19:13:56.472Z,72.32
2022-09-10T19:18:58.937Z,72.32
2022-09-10T19:24:03.630Z,72.31
2022-09-10T19:29:05.338Z,72.59
2022-09-10T19:34:07.367Z,72.73
2022-09-10T19:39:09.869Z,72.60
2022-09-10T19:44:12.421Z,72.63
2022-09-10T19:49:13.985Z,72.80
2022-09-10T19:54:15.344Z,72.81
2022-09-10T19:59:16.968Z,72.86
2022-09-10T20:04:18.272Z,72.98
2022-09-10T20:09:19.576Z,73.02
2022-09-10T20:14:21.009Z,72.96
2022-09-10T20:19:22.599Z,73.09
2022-09-10T20:24:23.900Z,73.06
2022-09-10T20:29:25.391Z,72.91
2022-09-10T20:34:26.692Z,72.82
2022-09-10T20:39:28.200Z,72.73
2022-09-10T20:44:30.034Z,72.75
2022-09-10T20:49:31.344Z,72.57
2022-09-10T20:54:32.857Z,72.47
2022-09-10T20:59:34.501Z,72.66
2022-09-10T21:04:35.773Z,72.67
2022-09-10T21:09:37.113Z,72.61
2022-09-10T21:14:38.405Z,72.61
2022-09-10T21:19:39.683Z,72.43
2022-09-10T21:24:43.393Z,72.94
2022-09-10T21:29:44.961Z,72.70
2022-09-10T21:34:46.276Z,72.68
2022-09-10T21:39:47.591Z,72.51
2022-09-10T21:44:48.933Z,72.63
2022-09-10T21:49:50.208Z,72.62
2022-09-10T21:54:51.473Z,72.68
2022-09-10T21:59:53.257Z,72.50
2022-09-10T22:04:54.580Z,72.31
2022-09-10T22:09:56.141Z,72.07
2022-09-10T22:14:58.018Z,71.82
2022-09-10T22:19:59.301Z,72.01
2022-09-10T22:25:01.088Z,72.19
2022-09-10T22:30:04.594Z,72.33
2022-09-10T22:35:08.146Z,72.38
2022-09-10T22:40:10.106Z,72.45
2022-09-10T22:45:12.388Z,72.44
2022-09-10T22:50:13.938Z,72.69
2022-09-10T22:55:15.236Z,72.85
2022-09-10T23:00:16.541Z,72.74
2022-09-10T23:05:17.827Z,72.74
2022-09-10T23:10:19.102Z,72.53
2022-09-10T23:15:20.442Z,72.55
2022-09-10T23:20:21.723Z,72.59
2022-09-10T23:25:22.992Z,72.63
2022-09-10T23:30:24.309Z,72.69
2022-09-10T23:35:25.583Z,72.86
2022-09-10T23:40:31.053Z,72.80
2022-09-10T23:45:34.933Z,72.72
2022-09-10T23:50:36.333Z,72.73
2022-09-10T23:55:37.658Z,72.66
